Time;durP1;ratioP1;P1;durP2;ratioP2;P2;SDS_P1;SDS_P2;PMS_P1;PMS_P2;Temp;Humidity;BMP_temperature;BMP_pressure;BME280_temperature;BME280_humidity;BME280_pressure;Samples;Min_cycle;Max_cycle;Signal;HPM_P1;HPM_P2
2022/06/06 00:04:59;;;;;;;61.17;54.78;;;;;;;20.68;100.00;100905.72;4873653;29;20060;-89
2022/06/06 00:07:26;;;;;;;66.82;60.03;;;;;;;20.41;100.00;100897.81;4969481;28;20133;-90
2022/06/06 00:09:53;;;;;;;74.45;67.07;;;;;;;20.51;100.00;100900.53;5058180;28;20052;-89
2022/06/06 00:12:23;;;;;;;67.70;60.90;;;;;;;20.35;100.00;100906.97;5063050;28;20041;-87
2022/06/06 00:14:50;;;;;;;64.15;57.50;;;;;;;20.26;100.00;100922.88;5103250;27;20039;-89
2022/06/06 00:17:17;;;;;;;64.95;57.70;;;;;;;19.93;100.00;100932.19;5122804;27;20047;-89
2022/06/06 00:19:44;;;;;;;66.18;59.63;;;;;;;19.55;100.00;100931.44;5125267;27;20047;-89
2022/06/06 00:22:12;;;;;;;62.80;56.15;;;;;;;20.00;100.00;100935.47;5126117;27;20055;-86
2022/06/06 00:24:39;;;;;;;65.65;58.90;;;;;;;20.19;100.00;100910.72;5129918;27;20138;-87
2022/06/06 00:27:06;;;;;;;64.45;57.58;;;;;;;19.92;100.00;100890.13;5122890;27;20053;-86
2022/06/06 00:29:35;;;;;;;67.78;60.65;;;;;;;20.03;100.00;100896.34;5126825;27;20062;-89
2022/06/06 00:34:50;;;;;;;66.53;59.17;;;;;;;19.98;100.00;100878.31;5108857;27;20057;-90
2022/06/06 00:37:31;;;;;;;62.38;56.10;;;;;;;19.94;100.00;100865.59;5122697;27;20066;-86
2022/06/06 00:40:19;;;;;;;62.63;56.17;;;;;;;19.82;100.00;100860.47;5129782;27;20047;-87
2022/06/06 00:42:46;;;;;;;59.58;53.53;;;;;;;19.88;100.00;100857.53;5124603;27;20487;-87
2022/06/06 00:45:31;;;;;;;62.88;56.17;;;;;;;19.82;100.00;100863.97;5123237;27;20134;-89
2022/06/06 00:48:10;;;;;;;63.13;56.55;;;;;;;19.67;100.00;100858.50;5124660;27;20391;-90
2022/06/06 00:53:38;;;;;;;59.03;53.13;;;;;;;19.68;100.00;100836.69;5130205;27;20035;-88
2022/06/06 00:56:24;;;;;;;59.88;53.92;;;;;;;19.88;100.00;100835.97;5119917;27;20225;-88
2022/06/06 00:59:04;;;;;;;55.30;49.58;;;;;;;19.82;100.00;100844.28;5123376;27;20040;-88
2022/06/06 01:01:48;;;;;;;51.33;46.08;;;;;;;19.71;100.00;100851.50;5120686;27;20062;-89
2022/06/06 01:04:27;;;;;;;61.35;55.28;;;;;;;19.65;100.00;100861.47;5118831;27;20399;-88
2022/06/06 01:06:55;;;;;;;59.08;53.55;;;;;;;19.54;100.00;100875.09;5121977;27;20499;-86
2022/06/06 01:09:26;;;;;;;60.88;55.15;;;;;;;19.56;100.00;100881.06;5129233;27;20053;-87
2022/06/06 01:15:11;;;;;;;58.90;53.08;;;;;;;19.64;100.00;100886.78;5069488;28;20061;-89
2022/06/06 01:31:50;;;;;;;56.25;49.95;;;;;;;19.89;100.00;100869.09;5033249;28;20152;-87
2022/06/06 01:59:57;;;;;;;45.88;41.78;;;;;;;19.99;100.00;100839.47;4843533;29;20057;-88
2022/06/06 02:33:48;;;;;;;67.43;60.53;;;;;;;19.66;100.00;100762.56;4824538;29;20103;-87
2022/06/06 02:36:45;;;;;;;67.70;60.60;;;;;;;19.43;100.00;100774.59;4826439;29;20058;-87
2022/06/06 02:39:47;;;;;;;73.95;66.85;;;;;;;19.51;100.00;100757.91;4885485;29;20087;-88
2022/06/06 02:49:49;;;;;;;;;;;;;;;;;;;;;
2022/06/06 02:52:16;;;;;;;67.82;50.13;;;;;;;18.85;100.00;100997.09;4919429;29;20055;-91
2022/06/06 02:54:43;;;;;;;32.58;29.58;;;;;;;17.84;100.00;100902.38;5004187;28;20057;-89
2022/06/06 02:57:10;;;;;;;31.65;28.40;;;;;;;18.86;100.00;100944.91;5018737;28;20057;-89
2022/06/06 02:59:39;;;;;;;34.58;32.00;;;;;;;18.14;100.00;100954.06;5044770;28;20046;-88
2022/06/06 03:02:09;;;;;;;32.60;30.13;;;;;;;18.61;100.00;100929.28;5048671;28;20124;-89
2022/06/06 03:04:43;;;;;;;30.60;28.60;;;;;;;18.06;100.00;100931.94;5053275;28;20041;-88
2022/06/06 03:07:27;;;;;;;29.90;27.98;;;;;;;18.08;100.00;100939.75;5052352;28;20057;-88
2022/06/06 03:10:03;;;;;;;32.63;29.77;;;;;;;17.84;100.00;100966.84;5052129;28;20052;-88
2022/06/06 03:12:42;;;;;;;28.48;26.10;;;;;;;18.05;100.00;100949.13;5050561;28;20049;-87
2022/06/06 03:20:46;;;;;;;28.15;25.65;;;;;;;18.28;100.00;100936.50;5052246;28;20047;-88
2022/06/06 03:21:40;;;;;;;27.60;25.40;;;;;;;19.21;100.00;100926.38;5048494;28;20108;-89
2022/06/06 03:24:22;;;;;;;28.40;26.00;;;;;;;18.32;100.00;100932.22;5041895;28;20063;-88
2022/06/06 03:27:03;;;;;;;29.65;27.50;;;;;;;18.16;100.00;100911.63;5045049;28;20041;-89
2022/06/06 03:29:47;;;;;;;26.88;24.77;;;;;;;18.33;100.00;100920.41;5050106;28;20052;-88
2022/06/06 03:32:24;;;;;;;27.35;25.27;;;;;;;18.36;100.00;100908.34;5046786;28;20132;-85
2022/06/06 03:34:58;;;;;;;33.35;30.05;;;;;;;18.46;100.00;100898.50;5049390;28;20045;-86
2022/06/06 03:37:33;;;;;;;28.73;26.77;;;;;;;18.34;100.00;100886.28;5044760;28;20049;-85
2022/06/06 03:40:13;;;;;;;31.33;29.02;;;;;;;18.43;100.00;100882.06;5043991;28;20057;-85
2022/06/06 03:42:49;;;;;;;26.50;24.65;;;;;;;18.26;100.00;100887.53;5046315;28;20054;-85
2022/06/06 03:45:24;;;;;;;25.67;23.55;;;;;;;18.63;100.00;100876.06;5045484;28;20473;-85
2022/06/06 03:48:04;;;;;;;24.20;22.70;;;;;;;18.54;100.00;100876.50;5044775;28;20053;-84
2022/06/06 03:50:45;;;;;;;23.50;22.00;;;;;;;18.68;100.00;100881.50;5042657;28;20041;-86
2022/06/06 03:53:29;;;;;;;24.20;22.58;;;;;;;18.58;100.00;100884.06;5040295;28;20099;-85
2022/06/06 03:56:18;;;;;;;23.67;22.20;;;;;;;18.75;100.00;100888.28;5042231;28;20107;-85
2022/06/06 03:58:45;;;;;;;23.70;22.20;;;;;;;19.12;100.00;100894.78;5048966;28;20060;-85
2022/06/06 04:01:14;;;;;;;26.35;24.75;;;;;;;18.83;100.00;100895.09;5045236;28;20524;-86
2022/06/06 04:03:44;;;;;;;25.17;23.17;;;;;;;19.07;100.00;100906.31;5048837;28;20136;-85
2022/06/06 04:06:16;;;;;;;28.27;26.58;;;;;;;19.07;100.00;100917.09;5042415;28;20061;-87
2022/06/06 04:08:45;;;;;;;27.67;26.08;;;;;;;18.74;100.00;100926.22;5036402;28;20461;-89
2022/06/06 04:11:31;;;;;;;24.40;22.80;;;;;;;18.95;100.00;100938.81;5040974;28;20088;-89
2022/06/06 04:14:10;;;;;;;25.70;23.80;;;;;;;19.15;100.00;100948.94;5043494;28;20045;-88
2022/06/06 04:16:46;;;;;;;26.25;24.35;;;;;;;19.42;100.00;100956.91;5043025;28;20485;-88
2022/06/06 04:19:28;;;;;;;27.90;25.80;;;;;;;19.61;100.00;100959.22;5045834;28;20057;-89
2022/06/06 04:22:10;;;;;;;25.60;23.60;;;;;;;19.54;100.00;100962.13;5045353;28;20129;-88
2022/06/06 04:25:03;;;;;;;28.35;26.13;;;;;;;19.72;100.00;100968.19;5036061;28;20041;-88
2022/06/06 04:27:40;;;;;;;28.65;26.25;;;;;;;19.54;100.00;100961.31;5039448;28;20493;-88
2022/06/06 04:30:13;;;;;;;29.25;26.85;;;;;;;20.30;100.00;100967.13;5048261;28;20041;-89
2022/06/06 04:32:52;;;;;;;30.85;28.20;;;;;;;20.02;100.00;100979.13;5048611;28;20071;-88
2022/06/06 04:35:28;;;;;;;30.08;27.58;;;;;;;19.70;100.00;100973.00;5045664;28;20041;-88
2022/06/06 04:38:06;;;;;;;30.75;28.25;;;;;;;19.67;100.00;100975.19;5042378;28;20103;-88
2022/06/06 04:40:41;;;;;;;30.73;28.23;;;;;;;19.60;100.00;100984.50;5039662;28;20080;-85
2022/06/06 04:43:14;;;;;;;32.03;29.42;;;;;;;19.71;100.00;100988.13;5046093;28;20127;-84
2022/06/06 04:45:49;;;;;;;32.08;29.55;;;;;;;19.63;100.00;101000.97;5047377;28;20127;-84
2022/06/06 04:48:18;;;;;;;30.58;28.13;;;;;;;20.12;100.00;100998.06;5049531;28;20418;-85
2022/06/06 04:50:46;;;;;;;29.83;27.42;;;;;;;19.78;100.00;101000.28;5046419;28;20469;-85
2022/06/06 04:53:27;;;;;;;31.35;28.95;;;;;;;19.75;100.00;101000.00;5039037;28;20121;-84
2022/06/06 04:56:01;;;;;;;30.52;28.13;;;;;;;19.87;100.00;100998.72;5045549;28;20111;-84
2022/06/06 04:58:32;;;;;;;30.63;28.17;;;;;;;19.56;100.00;100996.88;5046741;28;20059;-85
2022/06/06 05:01:02;;;;;;;29.10;26.90;;;;;;;19.77;100.00;101008.66;5038742;28;20471;-85
2022/06/06 05:03:28;;;;;;;30.02;27.58;;;;;;;19.68;100.00;101014.50;5046749;28;20056;-86
2022/06/06 05:06:09;;;;;;;28.92;26.80;;;;;;;19.67;100.00;101022.88;5046551;28;20063;-86
2022/06/06 05:08:51;;;;;;;30.52;27.85;;;;;;;19.71;100.00;101020.47;5049840;28;20082;-86
2022/06/06 05:11:34;;;;;;;29.23;26.83;;;;;;;19.95;100.00;101026.28;5044379;28;20111;-85
2022/06/06 05:14:20;;;;;;;29.45;27.05;;;;;;;20.48;100.00;101030.56;5044508;28;20057;-84
2022/06/06 05:17:02;;;;;;;29.63;27.17;;;;;;;20.07;100.00;101034.97;5045825;28;20057;-86
2022/06/06 05:19:53;;;;;;;33.47;30.73;;;;;;;20.01;100.00;101036.03;5045734;28;20041;-86
2022/06/06 05:22:55;;;;;;;35.17;32.20;;;;;;;20.12;100.00;101030.44;5040723;28;20071;-85
2022/06/06 05:25:42;;;;;;;32.93;30.07;;;;;;;20.31;100.00;101020.00;5040452;28;20055;-86
2022/06/06 05:28:26;;;;;;;32.67;30.05;;;;;;;20.13;100.00;101017.75;5046840;28;20300;-85
2022/06/06 05:30:57;;;;;;;32.45;29.75;;;;;;;20.13;100.00;101028.53;5039081;28;20366;-85
2022/06/06 05:33:31;;;;;;;31.27;28.67;;;;;;;20.08;100.00;101036.59;5046728;28;20045;-85
2022/06/06 05:36:15;;;;;;;31.45;28.60;;;;;;;20.28;100.00;101036.69;5042475;28;20060;-86
2022/06/06 05:39:00;;;;;;;30.77;28.30;;;;;;;20.26;100.00;101043.41;5052033;28;20137;-87
2022/06/06 05:41:39;;;;;;;34.05;30.85;;;;;;;20.38;100.00;101044.00;5043291;28;20049;-86
2022/06/06 05:44:16;;;;;;;32.50;29.65;;;;;;;20.40;100.00;101046.47;5049717;28;20056;-86
2022/06/06 05:47:02;;;;;;;33.00;30.30;;;;;;;20.29;100.00;101067.16;5048225;28;20056;-86
2022/06/06 05:49:45;;;;;;;34.17;31.10;;;;;;;20.09;100.00;101063.31;5043295;28;20046;-85
2022/06/06 05:52:25;;;;;;;32.88;30.17;;;;;;;20.12;100.00;101067.34;5048716;28;20049;-86
2022/06/06 05:55:09;;;;;;;36.10;33.10;;;;;;;20.41;100.00;101073.16;5043501;28;20080;-86
2022/06/06 05:58:11;;;;;;;36.55;33.45;;;;;;;20.24;100.00;101078.75;5049295;28;20460;-86
2022/06/06 06:00:55;;;;;;;36.38;32.97;;;;;;;20.25;100.00;101082.25;5040934;28;20049;-86
2022/06/06 06:03:42;;;;;;;37.40;33.42;;;;;;;20.23;100.00;101081.69;5045196;28;20088;-86
2022/06/06 06:06:19;;;;;;;34.30;31.30;;;;;;;20.16;100.00;101087.34;5043003;28;20045;-86
2022/06/06 06:09:04;;;;;;;33.67;30.77;;;;;;;20.27;100.00;101097.13;5039746;28;20060;-86
2022/06/06 06:11:47;;;;;;;31.20;28.63;;;;;;;20.40;100.00;101098.53;5047881;28;20044;-86
2022/06/06 06:14:30;;;;;;;33.58;30.25;;;;;;;20.17;100.00;101090.84;5045149;28;20055;-86
2022/06/06 06:17:02;;;;;;;33.92;31.25;;;;;;;20.11;100.00;101096.19;5045986;28;20053;-89
2022/06/06 06:19:38;;;;;;;32.30;29.73;;;;;;;20.03;100.00;101102.09;5046517;28;20045;-89
2022/06/06 06:22:08;;;;;;;34.28;31.25;;;;;;;20.23;100.00;101100.56;5046629;28;20059;-89
2022/06/06 06:24:38;;;;;;;34.65;31.50;;;;;;;20.22;100.00;101096.25;5043065;28;20107;-89
2022/06/06 06:27:07;;;;;;;35.55;32.47;;;;;;;20.23;100.00;101098.69;5042110;28;20068;-89
2022/06/06 06:29:35;;;;;;;35.60;32.53;;;;;;;20.26;100.00;101092.78;5048417;28;20059;-88
2022/06/06 06:32:27;;;;;;;36.40;33.22;;;;;;;20.18;100.00;101093.25;5045271;28;20421;-89
2022/06/06 06:35:10;;;;;;;37.42;34.42;;;;;;;20.38;100.00;101086.38;5043417;28;20144;-88
2022/06/06 06:37:44;;;;;;;;;;;;;;;20.38;100.00;101086.38;5053221;28;20124;-88
2022/06/06 06:40:23;;;;;;;39.08;35.90;;;;;;;20.80;100.00;101084.41;5048142;28;20015;-89
2022/06/06 06:43:10;;;;;;;34.38;31.77;;;;;;;20.93;100.00;101083.09;5041073;28;20140;-88
2022/06/06 06:45:42;;;;;;;31.35;29.05;;;;;;;21.02;100.00;101086.88;5048053;28;20049;-87
2022/06/06 06:48:13;;;;;;;31.40;28.80;;;;;;;21.40;100.00;101087.53;5041923;28;20041;-88
2022/06/06 06:50:57;;;;;;;33.60;31.00;;;;;;;21.13;100.00;101086.94;5045033;28;20053;-87
2022/06/06 06:53:46;;;;;;;32.83;30.10;;;;;;;21.35;100.00;101075.88;5038836;28;20041;-87
2022/06/06 06:56:32;;;;;;;32.55;29.98;;;;;;;21.22;100.00;101082.63;5044921;28;20049;-88
2022/06/06 06:59:12;;;;;;;28.80;26.23;;;;;;;21.31;100.00;101072.09;5041755;28;20074;-88
2022/06/06 07:10:30;;;;;;;30.48;28.05;;;;;;;20.90;100.00;101080.91;5050055;28;20111;-88
2022/06/06 07:13:20;;;;;;;29.83;27.33;;;;;;;21.32;100.00;101079.91;5045454;28;20049;-89
2022/06/06 07:15:53;;;;;;;29.88;27.45;;;;;;;21.58;100.00;101082.69;5045347;28;20045;-87
2022/06/06 07:18:27;;;;;;;29.33;27.05;;;;;;;21.31;100.00;101086.41;5042640;28;20103;-88
2022/06/06 07:21:01;;;;;;;31.15;28.63;;;;;;;21.00;100.00;101090.97;5049223;28;20095;-88
2022/06/06 07:23:34;;;;;;;31.95;29.40;;;;;;;21.29;100.00;101091.25;5039070;28;20057;-87
2022/06/06 07:26:05;;;;;;;30.52;28.10;;;;;;;21.58;100.00;101093.50;5043921;28;20126;-88
2022/06/06 07:28:35;;;;;;;31.08;28.65;;;;;;;21.32;100.00;101092.63;5046497;28;20390;-88
2022/06/06 07:31:11;;;;;;;34.10;31.35;;;;;;;21.80;100.00;101095.91;5044558;28;20464;-89
2022/06/06 07:34:05;;;;;;;35.80;32.78;;;;;;;21.54;100.00;101093.19;5041356;28;20057;-88
2022/06/06 07:36:55;;;;;;;38.38;35.28;;;;;;;22.03;100.00;101098.03;5048263;28;20139;-88
2022/06/06 07:39:34;;;;;;;36.50;33.80;;;;;;;22.54;100.00;101102.50;5052619;28;20123;-88
2022/06/06 07:42:26;;;;;;;35.65;32.97;;;;;;;23.54;100.00;101096.81;5043104;28;20068;-88
2022/06/06 07:45:15;;;;;;;34.80;32.00;;;;;;;23.98;100.00;101089.66;5040883;28;20041;-88
2022/06/06 07:47:56;;;;;;;32.70;30.10;;;;;;;23.89;100.00;101094.91;5043028;28;20386;-89
2022/06/06 07:50:35;;;;;;;33.95;31.35;;;;;;;24.14;100.00;101096.53;5045639;28;20080;-88
2022/06/06 07:53:10;;;;;;;33.78;31.35;;;;;;;23.97;100.00;101096.19;5042116;28;20055;-89
2022/06/06 07:55:52;;;;;;;32.00;29.70;;;;;;;23.81;100.00;101094.72;5050754;28;20420;-89
2022/06/06 07:58:29;;;;;;;30.25;27.95;;;;;;;24.33;100.00;101096.63;5046260;28;20045;-88
2022/06/06 08:01:11;;;;;;;28.08;26.20;;;;;;;23.79;100.00;101094.22;5047825;28;20045;-87
2022/06/06 08:03:47;;;;;;;;;;;;;;;24.41;100.00;101092.44;5037597;28;20132;-88
2022/06/06 08:06:25;;;;;;;26.58;24.58;;;;;;;24.17;100.00;101104.09;5050158;28;19920;-88
2022/06/06 08:09:25;;;;;;;28.17;26.20;;;;;;;24.10;100.00;101095.50;5044925;28;20071;-89
2022/06/06 08:12:16;;;;;;;30.45;28.60;;;;;;;24.70;100.00;101099.75;5042661;28;20119;-87
2022/06/06 08:15:04;;;;;;;27.42;25.63;;;;;;;24.05;100.00;101106.41;5055188;28;20049;-88
2022/06/06 08:17:46;;;;;;;25.48;24.00;;;;;;;24.04;100.00;101099.38;5014541;28;20049;-89
2022/06/06 08:20:24;;;;;;;27.70;25.85;;;;;;;24.95;100.00;101099.41;5002660;28;20061;-88
2022/06/06 08:22:54;;;;;;;26.20;24.63;;;;;;;24.64;100.00;101116.09;5009607;28;20097;-89
2022/06/06 08:25:24;;;;;;;25.15;23.42;;;;;;;23.74;100.00;101098.56;5010152;28;20062;-89
2022/06/06 08:27:56;;;;;;;25.70;24.08;;;;;;;24.48;100.00;101087.53;5014113;28;20084;-85
2022/06/06 08:30:23;;;;;;;25.55;24.00;;;;;;;24.42;100.00;101102.25;5002397;28;20053;-85
2022/06/06 08:32:56;;;;;;;24.20;22.70;;;;;;;24.58;100.00;101100.16;5005106;28;20064;-86
2022/06/06 08:35:34;;;;;;;24.40;23.00;;;;;;;24.39;100.00;101094.66;5014617;28;20085;-85
2022/06/06 08:38:33;;;;;;;24.00;22.60;;;;;;;24.51;100.00;101103.25;5015237;28;20193;-86
2022/06/06 08:41:23;;;;;;;24.08;22.40;;;;;;;24.45;100.00;101117.97;5013960;28;20139;-85
2022/06/06 08:44:16;;;;;;;23.67;22.27;;;;;;;24.37;100.00;101105.81;5014856;28;20060;-85
2022/06/06 08:46:45;;;;;;;;;;;;;;;24.70;100.00;101113.31;5012655;28;20056;-85
2022/06/06 08:52:30;;;;;;;;;;;;;;;24.94;100.00;101114.09;5013013;28;19933;-86
2022/06/06 08:55:08;;;;;;;;;;;;;;;25.24;100.00;101114.78;5008742;28;19926;-85
2022/06/06 08:57:50;;;;;;;;;;;;;;;24.55;100.00;101114.31;5009543;28;19921;-85
2022/06/06 09:00:28;;;;;;;;;;;;;;;24.27;100.00;101121.38;5006033;28;19921;-87
2022/06/06 09:03:25;;;;;;;;;;;;;;;25.05;100.00;101122.88;5014238;28;19971;-86
2022/06/06 09:06:18;;;;;;;;;;;;;;;25.30;100.00;101111.69;5012686;28;19922;-87
2022/06/06 09:09:05;;;;;;;;;;;;;;;25.52;100.00;101119.22;5001600;28;19932;-87
2022/06/06 09:12:13;;;;;;;;;;;;;;;25.38;100.00;101123.00;5013066;28;19979;-86
2022/06/06 09:15:07;;;;;;;;;;;;;;;24.70;100.00;101119.56;5005237;28;19922;-85
2022/06/06 09:18:14;;;;;;;;;;;;;;;24.74;100.00;101125.22;5007513;28;19921;-85
2022/06/06 09:21:17;;;;;;;;;;;;;;;25.52;100.00;101124.66;5011077;28;20308;-86
2022/06/06 09:26:45;;;;;;;;;;;;;;;24.72;100.00;101117.38;4998179;28;19922;-86
2022/06/06 09:29:37;;;;;;;;;;;;;;;24.91;100.00;101126.34;5003391;28;19988;-85
2022/06/06 09:32:19;;;;;;;;;;;;;;;24.79;100.00;101123.25;5008099;28;19925;-86
2022/06/06 09:35:08;;;;;;;;;;;;;;;25.35;100.00;101118.94;4979809;28;20274;-86
2022/06/06 09:37:54;;;;;;;;;;;;;;;25.88;100.00;101118.66;5005710;28;20340;-86
2022/06/06 09:40:30;;;;;;;;;;;;;;;26.27;100.00;101120.13;5000212;28;19933;-85
2022/06/06 09:43:13;;;;;;;;;;;;;;;26.04;100.00;101127.34;5002318;28;19995;-89
2022/06/06 09:46:18;;;;;;;;;;;;;;;26.26;100.00;101115.78;5005095;28;19960;-89
2022/06/06 09:49:06;;;;;;;;;;;;;;;26.10;100.00;101117.19;4980741;28;19926;-89
2022/06/06 09:52:03;;;;;;;;;;;;;;;26.37;100.00;101117.19;5007729;28;20380;-89
2022/06/06 10:00:57;;;;;;;;;;;;;;;25.42;100.00;101113.97;4969060;28;20002;-88
2022/06/06 10:03:46;;;;;;;;;;;;;;;26.15;100.00;101111.66;4976834;28;19921;-89
2022/06/06 10:06:43;;;;;;;;;;;;;;;25.83;100.00;101116.03;5003842;28;20337;-88
2022/06/06 10:12:29;;;;;;;;;;;;;;;26.05;100.00;101104.47;4913208;29;19926;-89
2022/06/06 10:15:23;;;;;;;;;;;;;;;25.69;100.00;101096.09;4927509;29;19953;-90
2022/06/06 10:21:27;;;;;;;;;;;;;;;;;;;;;
2022/06/06 10:24:09;;;;;;;;;;;;;;;25.17;100.00;101085.25;5005818;28;19931;-86
2022/06/06 10:26:44;;;;;;;;;;;;;;;24.63;100.00;101086.50;5051917;28;19928;-85
2022/06/06 10:32:36;;;;;;;;;;;;;;;25.82;100.00;101081.78;5037086;28;19921;-87
2022/06/06 10:35:32;;;;;;;;;;;;;;;25.38;100.00;101088.44;5044064;28;20328;-86
2022/06/06 10:38:14;;;;;;;;;;;;;;;25.36;100.00;101087.97;5050843;28;19921;-85
2022/06/06 10:50:08;;;;;;;;;;;;;;;25.51;100.00;101090.44;5041165;28;19932;-86
2022/06/06 10:59:20;;;;;;;;;;;;;;;;;;;;;
2022/06/06 11:11:47;;;;;;;;;;;;;;;;;;;;;
2022/06/06 11:36:11;;;;;;;;;;;;;;;26.21;100.00;101080.50;4895437;29;19922;-88
2022/06/06 11:48:47;;;;;;;;;;;;;;;26.70;100.00;101076.25;4939904;29;19938;-88
2022/06/06 11:57:58;;;;;;;;;;;;;;;27.89;100.00;101061.41;4827460;29;19978;-89
2022/06/06 12:22:07;;;;;;;;;;;;;;;26.60;100.00;101057.41;4916314;29;19981;-87
2022/06/06 12:25:13;;;;;;;;;;;;;;;26.49;100.00;101057.63;4917169;29;19923;-89
2022/06/06 12:28:06;;;;;;;;;;;;;;;26.62;100.00;101063.34;4986885;28;20352;-89
2022/06/06 12:31:00;;;;;;;;;;;;;;;27.01;100.00;101060.00;5021471;28;20011;-90
2022/06/06 12:36:22;;;;;;;;;;;;;;;26.54;100.00;101044.97;5016006;28;19921;-88
2022/06/06 12:42:14;;;;;;;;;;;;;;;26.04;100.00;101054.66;4991915;28;19921;-86
2022/06/06 13:50:58;;;;;;;;;;;;;;;26.30;100.00;100993.50;4975114;28;19934;-87
2022/06/06 13:53:45;;;;;;;;;;;;;;;26.33;100.00;100995.59;5036130;28;19921;-88
2022/06/06 13:56:19;;;;;;;;;;;;;;;26.50;100.00;100996.56;5032698;28;19922;-88
2022/06/06 13:58:53;;;;;;;;;;;;;;;26.33;100.00;100984.72;5029627;28;20320;-87
2022/06/06 14:01:29;;;;;;;;;;;;;;;26.25;98.84;100988.94;5030621;28;20354;-88
2022/06/06 14:10:29;;;;;;;;;;;;;;;;;;;;;
2022/06/06 14:53:33;;;;;;;;;;;;;;;24.73;100.00;100991.34;4841684;29;19927;-87
2022/06/06 14:59:30;;;;;;;;;;;;;;;25.40;100.00;100998.44;4870798;29;20300;-89
2022/06/06 15:11:37;;;;;;;;;;;;;;;25.72;100.00;101001.13;4864077;29;20007;-87
2022/06/06 15:23:36;;;;;;;;;;;;;;;24.89;100.00;101014.44;4980823;28;20279;-87
2022/06/06 15:32:33;;;;;;;;;;;;;;;25.29;100.00;101025.00;4970104;28;19960;-87
2022/06/06 15:35:11;;;;;;;;;;;;;;;25.48;100.00;101027.69;4975140;28;19988;-87
2022/06/06 15:37:55;;;;;;;;;;;;;;;25.40;100.00;101041.94;4976513;28;20403;-87
2022/06/06 15:40:32;;;;;;;;;;;;;;;25.15;100.00;101056.78;5004102;28;19921;-86
2022/06/06 15:43:08;;;;;;;;;;;;;;;24.98;100.00;101071.63;5026159;28;19928;-89
2022/06/06 15:45:44;;;;;;;;;;;;;;;25.22;100.00;101078.94;5028267;28;19931;-86
2022/06/06 15:48:24;;;;;;;;;;;;;;;25.21;100.00;101078.13;5027270;28;19925;-87
2022/06/06 15:51:13;;;;;;;;;;;;;;;25.23;100.00;101086.78;5026160;28;19948;-86
2022/06/06 15:54:04;;;;;;;;;;;;;;;25.11;97.84;101086.38;5018072;28;19925;-87
2022/06/06 15:56:59;;;;;;;;;;;;;;;25.23;100.00;101081.34;5035839;28;19935;-88
2022/06/06 15:59:55;;;;;;;;;;;;;;;25.03;100.00;101081.63;5026085;28;19987;-87
2022/06/06 16:02:38;;;;;;;;;;;;;;;24.96;100.00;101087.41;4971235;28;19929;-88
2022/06/06 16:05:22;;;;;;;;;;;;;;;24.98;100.00;101087.13;5013085;28;19928;-87
2022/06/06 16:08:17;;;;;;;;;;;;;;;25.04;100.00;101089.47;5024862;28;19921;-86
2022/06/06 16:10:55;;;;;;;;;;;;;;;25.08;100.00;101100.56;5021693;28;19921;-88
2022/06/06 16:13:44;;;;;;;;;;;;;;;24.87;100.00;101100.88;5028853;28;19921;-88
2022/06/06 16:16:21;;;;;;;;;;;;;;;24.60;100.00;101097.94;5021199;28;19936;-88
2022/06/06 16:18:57;;;;;;;;;;;;;;;24.72;100.00;101101.09;5030387;28;19921;-86
2022/06/06 16:24:21;;;;;;;;;;;;;;;24.58;100.00;101106.41;5031121;28;19935;-88
2022/06/06 16:26:50;;;;;;;;;;;;;;;24.43;100.00;101109.31;5024601;28;19971;-88
2022/06/06 16:35:43;;;;;;;;;;;;;;;24.08;100.00;101124.03;4934745;28;20406;-88
2022/06/06 16:38:15;;;;;;;;;;;;;;;24.10;100.00;101133.50;5001823;28;19921;-88
2022/06/06 17:23:13;;;;;;;;;;;;;;;21.96;100.00;101152.38;4935189;28;20041;-88
2022/06/06 17:29:23;;;;;;;;;;;;;;;;;;;;;
2022/06/06 23:10:47;;;;;;;;;;;;;;;;;;;;;
2022/06/06 23:57:59;;;;;;;;;;;;;;;;;;;;;
